Time,TemperatureF,DewpointF,PressureIn,WindDirection,WindDirectionDegrees,WindSpeedMPH,WindSpeedGustMPH,Humidity,HourlyPrecipIn,Conditions,Clouds,dailyrainin,SoftwareType,DateUTC
2013-02-24 00:02:00,55.0,-99.9,29.97,North,6,18.0,20.0,-999,-99.99,,,-99.99,,2013-02-24 06:02:00,
2013-02-24 00:12:00,55.0,-99.9,29.97,North,6,18.0,21.0,-999,-99.99,,,-99.99,,2013-02-24 06:12:00,
2013-02-24 00:22:00,55.0,-99.9,29.97,North,7,18.0,19.0,-999,-99.99,,,-99.99,,2013-02-24 06:22:00,
2013-02-24 00:32:00,55.0,-99.9,29.97,North,8,17.0,19.0,-999,-99.99,,,-99.99,,2013-02-24 06:32:00,
2013-02-24 00:42:00,55.0,-99.9,29.97,North,6,17.0,19.0,-999,-99.99,,,-99.99,,2013-02-24 06:42:00,
2013-02-24 00:52:00,55.0,-99.9,29.97,North,9,17.0,19.0,-999,-99.99,,,-99.99,,2013-02-24 06:52:00,
2013-02-24 01:01:00,55.0,-99.9,29.97,NNE,18,15.0,17.0,-999,-99.99,,,-99.99,,2013-02-24 07:01:00,
2013-02-24 01:12:00,55.0,-99.9,29.97,NNE,16,15.0,16.0,-999,-99.99,,,-99.99,,2013-02-24 07:12:00,
2013-02-24 01:22:00,56.0,-99.9,29.97,NNE,17,12.0,15.0,-999,-99.99,,,-99.99,,2013-02-24 07:22:00,
2013-02-24 01:32:00,56.0,-99.9,29.97,NNE,20,14.0,15.0,-999,-99.99,,,-99.99,,2013-02-24 07:32:00,
2013-02-24 01:42:00,56.0,-99.9,29.97,NNE,18,12.0,14.0,-999,-99.99,,,-99.99,,2013-02-24 07:42:00,
2013-02-24 01:52:00,56.0,-99.9,29.97,NNE,16,12.0,14.0,-999,-99.99,,,-99.99,,2013-02-24 07:52:00,
2013-02-24 02:01:00,56.0,-99.9,29.96,NNE,26,11.0,14.0,-999,-99.99,,,-99.99,,2013-02-24 08:01:00,
2013-02-24 02:11:00,56.0,-99.9,29.96,NNE,28,11.0,13.0,-999,-99.99,,,-99.99,,2013-02-24 08:11:00,
2013-02-24 02:22:00,56.0,-99.9,29.96,NNE,33,12.0,13.0,-999,-99.99,,,-99.99,,2013-02-24 08:22:00,
2013-02-24 02:32:00,56.0,-99.9,29.96,NE,36,10.0,11.0,-999,-99.99,,,-99.99,,2013-02-24 08:32:00,
2013-02-24 02:42:00,56.0,-99.9,29.96,NE,35,9.0,11.0,-999,-99.99,,,-99.99,,2013-02-24 08:42:00,
2013-02-24 02:54:00,56.0,-99.9,29.96,NE,36,9.0,11.0,-999,-99.99,,,-99.99,,2013-02-24 08:54:00,
2013-02-24 03:02:00,56.0,-99.9,29.96,NE,35,9.0,10.0,-999,-99.99,,,-99.99,,2013-02-24 09:02:00,
2013-02-24 03:11:00,56.0,-99.9,29.96,NNE,32,9.0,11.0,-999,-99.99,,,-99.99,,2013-02-24 09:11:00,
2013-02-24 03:22:00,56.0,-99.9,29.95,NNE,24,11.0,12.0,-999,-99.99,,,-99.99,,2013-02-24 09:22:00,
2013-02-24 03:32:00,56.0,-99.9,29.94,NNE,26,10.0,12.0,-999,-99.99,,,-99.99,,2013-02-24 09:32:00,
2013-02-24 03:42:00,56.0,-99.9,29.95,NNE,25,10.0,11.0,-999,-99.99,,,-99.99,,2013-02-24 09:42:00,
2013-02-24 03:52:00,56.0,-99.9,29.95,NNE,21,10.0,10.0,-999,-99.99,,,-99.99,,2013-02-24 09:52:00,
2013-02-24 04:01:00,56.0,-99.9,29.95,NNE,22,9.0,11.0,-999,-99.99,,,-99.99,,2013-02-24 10:01:00,
2013-02-24 04:11:00,56.0,-99.9,29.95,NNE,22,9.0,11.0,-999,-99.99,,,-99.99,,2013-02-24 10:11:00,
2013-02-24 04:22:00,55.0,-99.9,29.95,NNE,23,10.0,13.0,-999,-99.99,,,-99.99,,2013-02-24 10:22:00,
2013-02-24 04:32:00,55.0,-99.9,29.95,NNE,20,12.0,15.0,-999,-99.99,,,-99.99,,2013-02-24 10:32:00,
2013-02-24 04:42:00,55.0,-99.9,29.95,NNE,18,13.0,15.0,-999,-99.99,,,-99.99,,2013-02-24 10:42:00,
2013-02-24 04:52:00,55.0,-99.9,29.95,NNE,19,14.0,15.0,-999,-99.99,,,-99.99,,2013-02-24 10:52:00,
2013-02-24 05:01:00,55.0,-99.9,29.95,NNE,21,13.0,15.0,-999,-99.99,,,-99.99,,2013-02-24 11:01:00,
2013-02-24 05:11:00,55.0,-99.9,29.96,NNE,23,13.0,14.0,-999,-99.99,,,-99.99,,2013-02-24 11:11:00,
2013-02-24 05:22:00,55.0,-99.9,29.96,NNE,22,13.0,16.0,-999,-99.99,,,-99.99,,2013-02-24 11:22:00,
2013-02-24 05:32:00,55.0,-99.9,29.96,NNE,25,15.0,17.0,-999,-99.99,,,-99.99,,2013-02-24 11:32:00,
2013-02-24 05:42:00,55.0,-99.9,29.96,NNE,25,17.0,18.0,-999,-99.99,,,-99.99,,2013-02-24 11:42:00,
2013-02-24 05:53:00,55.0,-99.9,29.97,NNE,24,12.0,14.0,-999,-99.99,,,-99.99,,2013-02-24 11:53:00,
2013-02-24 06:02:00,55.0,-99.9,29.97,NNE,25,13.0,15.0,-999,-99.99,,,-99.99,,2013-02-24 12:02:00,
2013-02-24 06:11:00,55.0,-99.9,29.97,NNE,21,13.0,16.0,-999,-99.99,,,-99.99,,2013-02-24 12:11:00,
2013-02-24 06:22:00,55.0,-99.9,29.96,NNE,24,13.0,16.0,-999,-99.99,,,-99.99,,2013-02-24 12:22:00,
2013-02-24 06:33:00,54.0,-99.9,29.96,NNE,29,15.0,17.0,-999,-99.99,,,-99.99,,2013-02-24 12:33:00,
2013-02-24 06:46:00,54.0,-99.9,29.96,NNE,30,16.0,18.0,-999,-99.99,,,-99.99,,2013-02-24 12:46:00,
2013-02-24 07:00:00,54.0,-99.9,29.97,NNE,30,15.0,17.0,-999,-99.99,,,-99.99,,2013-02-24 13:00:00,
2013-02-24 07:15:00,54.0,-99.9,29.97,NNE,29,15.0,17.0,-999,-99.99,,,-99.99,,2013-02-24 13:15:00,
2013-02-24 07:35:00,53.0,-99.9,29.98,NNE,33,17.0,19.0,-999,-99.99,,,-99.99,,2013-02-24 13:35:00,
2013-02-24 07:56:00,53.0,-99.9,29.99,NNE,33,15.0,17.0,-999,-99.99,,,-99.99,,2013-02-24 13:56:00,
2013-02-24 08:05:00,52.0,-99.9,29.99,NE,42,13.0,16.0,-999,-99.99,,,-99.99,,2013-02-24 14:05:00,
2013-02-24 08:14:00,52.0,-99.9,29.99,NE,43,14.0,15.0,-999,-99.99,,,-99.99,,2013-02-24 14:14:00,
2013-02-24 08:25:00,52.0,-99.9,30.00,NE,50,14.0,16.0,-999,-99.99,,,-99.99,,2013-02-24 14:25:00,
2013-02-24 08:35:00,52.0,-99.9,30.00,NE,49,12.0,15.0,-999,-99.99,,,-99.99,,2013-02-24 14:35:00,
2013-02-24 08:46:00,52.0,-99.9,30.00,NE,50,12.0,16.0,-999,-99.99,,,-99.99,,2013-02-24 14:46:00,
2013-02-24 08:55:00,52.0,-99.9,30.01,NE,52,12.0,15.0,-999,-99.99,,,-99.99,,2013-02-24 14:55:00,
2013-02-24 09:04:00,52.0,-99.9,30.00,NE,53,13.0,14.0,-999,-99.99,,,-99.99,,2013-02-24 15:04:00,
2013-02-24 09:24:00,53.0,-99.9,30.00,NE,52,12.0,15.0,-999,-99.99,,,-99.99,,2013-02-24 15:24:00,
2013-02-24 09:32:00,53.0,-99.9,30.01,NE,50,12.0,14.0,-999,-99.99,,,-99.99,,2013-02-24 15:32:00,
2013-02-24 09:42:00,53.0,-99.9,30.01,NE,52,11.0,13.0,-999,-99.99,,,-99.99,,2013-02-24 15:42:00,
2013-02-24 09:53:00,54.0,-99.9,30.01,NE,45,11.0,13.0,-999,-99.99,,,-99.99,,2013-02-24 15:53:00,
2013-02-24 10:02:00,54.0,-99.9,30.01,NE,52,10.0,12.0,-999,-99.99,,,-99.99,,2013-02-24 16:02:00,
2013-02-24 10:12:00,54.0,-99.9,30.01,NE,50,11.0,13.0,-999,-99.99,,,-99.99,,2013-02-24 16:12:00,
2013-02-24 10:22:00,54.0,-99.9,30.01,NE,52,9.0,11.0,-999,-99.99,,,-99.99,,2013-02-24 16:22:00,
2013-02-24 10:32:00,55.0,-99.9,30.01,NE,44,9.0,11.0,-999,-99.99,,,-99.99,,2013-02-24 16:32:00,
2013-02-24 10:42:00,55.0,-99.9,30.01,NE,47,10.0,11.0,-999,-99.99,,,-99.99,,2013-02-24 16:42:00,
2013-02-24 10:52:00,55.0,-99.9,30.01,NE,38,9.0,11.0,-999,-99.99,,,-99.99,,2013-02-24 16:52:00,
2013-02-24 11:01:00,55.0,-99.9,30.01,NNE,31,10.0,10.0,-999,-99.99,,,-99.99,,2013-02-24 17:01:00,
2013-02-24 11:11:00,55.0,-99.9,30.01,NNE,18,8.0,10.0,-999,-99.99,,,-99.99,,2013-02-24 17:11:00,
2013-02-24 11:22:00,55.0,-99.9,30.00,NNE,17,9.0,11.0,-999,-99.99,,,-99.99,,2013-02-24 17:22:00,
2013-02-24 11:32:00,55.0,-99.9,30.00,North,9,10.0,12.0,-999,-99.99,,,-99.99,,2013-02-24 17:32:00,
2013-02-24 11:42:00,55.0,-99.9,30.00,North,10,10.0,11.0,-999,-99.99,,,-99.99,,2013-02-24 17:42:00,
2013-02-24 11:53:00,55.0,-99.9,29.99,NNE,18,10.0,12.0,-999,-99.99,,,-99.99,,2013-02-24 17:53:00,
2013-02-24 12:02:00,55.0,-99.9,29.99,North,6,11.0,12.0,-999,-99.99,,,-99.99,,2013-02-24 18:02:00,
2013-02-24 12:12:00,55.0,-99.9,29.99,North,4,10.0,11.0,-999,-99.99,,,-99.99,,2013-02-24 18:12:00,
2013-02-24 12:22:00,55.0,-99.9,29.98,North,10,8.0,11.0,-999,-99.99,,,-99.99,,2013-02-24 18:22:00,
2013-02-24 12:32:00,55.0,-99.9,29.97,NNE,24,9.0,11.0,-999,-99.99,,,-99.99,,2013-02-24 18:32:00,
2013-02-24 12:42:00,55.0,-99.9,29.97,NNE,17,8.0,10.0,-999,-99.99,,,-99.99,,2013-02-24 18:42:00,
2013-02-24 12:52:00,55.0,-99.9,29.97,North,10,9.0,11.0,-999,-99.99,,,-99.99,,2013-02-24 18:52:00,
2013-02-24 13:01:00,55.0,-99.9,29.97,NNE,13,9.0,10.0,-999,-99.99,,,-99.99,,2013-02-24 19:01:00,
2013-02-24 13:12:00,55.0,-99.9,29.96,NNE,19,8.0,9.0,-999,-99.99,,,-99.99,,2013-02-24 19:12:00,
2013-02-24 13:22:00,56.0,-99.9,29.96,North,7,8.0,9.0,-999,-99.99,,,-99.99,,2013-02-24 19:22:00,
2013-02-24 13:32:00,57.0,-99.9,29.95,NNE,15,8.0,9.0,-999,-99.99,,,-99.99,,2013-02-24 19:32:00,
2013-02-24 13:42:00,57.0,-99.9,29.95,NNE,12,7.0,9.0,-999,-99.99,,,-99.99,,2013-02-24 19:42:00,
2013-02-24 13:52:00,57.0,-99.9,29.94,NNE,32,6.0,7.0,-999,-99.99,,,-99.99,,2013-02-24 19:52:00,
2013-02-24 14:02:00,57.0,-99.9,29.94,North,8,6.0,6.0,-999,-99.99,,,-99.99,,2013-02-24 20:02:00,
2013-02-24 14:11:00,58.0,-99.9,29.94,NNE,25,4.0,5.0,-999,-99.99,,,-99.99,,2013-02-24 20:11:00,
2013-02-24 14:22:00,58.0,-99.9,29.94,NNE,32,4.0,6.0,-999,-99.99,,,-99.99,,2013-02-24 20:22:00,
2013-02-24 14:32:00,58.0,-99.9,29.94,NE,56,6.0,6.0,-999,-99.99,,,-99.99,,2013-02-24 20:32:00,
2013-02-24 14:42:00,58.0,-99.9,29.94,ENE,74,6.0,6.0,-999,-99.99,,,-99.99,,2013-02-24 20:42:00,
2013-02-24 14:52:00,58.0,-99.9,29.94,NE,48,4.0,5.0,-999,-99.99,,,-99.99,,2013-02-24 20:52:00,
2013-02-24 15:02:00,58.0,-99.9,29.93,NE,43,4.0,5.0,-999,-99.99,,,-99.99,,2013-02-24 21:02:00,
2013-02-24 15:11:00,59.0,-99.9,29.93,NE,49,4.0,4.0,-999,-99.99,,,-99.99,,2013-02-24 21:11:00,
2013-02-24 15:21:00,59.0,-99.9,29.94,NE,34,2.0,6.0,-999,-99.99,,,-99.99,,2013-02-24 21:21:00,
2013-02-24 15:32:00,59.0,-99.9,29.93,NE,50,6.0,8.0,-999,-99.99,,,-99.99,,2013-02-24 21:32:00,
2013-02-24 15:42:00,60.0,-99.9,29.93,ENE,64,6.0,8.0,-999,-99.99,,,-99.99,,2013-02-24 21:42:00,
2013-02-24 15:52:00,61.0,-99.9,29.93,ENE,67,7.0,9.0,-999,-99.99,,,-99.99,,2013-02-24 21:52:00,
2013-02-24 16:01:00,61.0,-99.9,29.92,ENE,70,7.0,9.0,-999,-99.99,,,-99.99,,2013-02-24 22:01:00,
2013-02-24 16:11:00,60.0,-99.9,29.93,ENE,57,4.0,9.0,-999,-99.99,,,-99.99,,2013-02-24 22:11:00,
2013-02-24 16:22:00,61.0,-99.9,29.92,East,81,4.0,5.0,-999,-99.99,,,-99.99,,2013-02-24 22:22:00,
2013-02-24 16:32:00,60.0,-99.9,29.92,East,92,4.0,5.0,-999,-99.99,,,-99.99,,2013-02-24 22:32:00,
2013-02-24 16:42:00,60.0,-99.9,29.92,ENE,68,4.0,7.0,-999,-99.99,,,-99.99,,2013-02-24 22:42:00,
2013-02-24 16:52:00,61.0,-99.9,29.91,East,95,7.0,11.0,-999,-99.99,,,-99.99,,2013-02-24 22:52:00,
2013-02-24 17:02:00,60.0,-99.9,29.91,ESE,104,10.0,14.0,-999,-99.99,,,-99.99,,2013-02-24 23:02:00,
2013-02-24 17:11:00,61.0,-99.9,29.90,ESE,104,14.0,15.0,-999,-99.99,,,-99.99,,2013-02-24 23:11:00,
2013-02-24 17:22:00,61.0,-99.9,29.91,East,101,11.0,12.0,-999,-99.99,,,-99.99,,2013-02-24 23:22:00,
2013-02-24 17:32:00,61.0,-99.9,29.91,East,92,8.0,12.0,-999,-99.99,,,-99.99,,2013-02-24 23:32:00,
2013-02-24 17:42:00,61.0,-99.9,29.90,East,90,11.0,12.0,-999,-99.99,,,-99.99,,2013-02-24 23:42:00,
2013-02-24 17:52:00,61.0,-99.9,29.91,East,101,10.0,11.0,-999,-99.99,,,-99.99,,2013-02-24 23:52:00,
2013-02-24 18:02:00,61.0,-99.9,29.91,East,93,9.0,11.0,-999,-99.99,,,-99.99,,2013-02-25 00:02:00,
2013-02-24 18:11:00,61.0,-99.9,29.91,ENE,78,10.0,13.0,-999,-99.99,,,-99.99,,2013-02-25 00:11:00,
2013-02-24 18:22:00,61.0,-99.9,29.90,East,79,13.0,13.0,-999,-99.99,,,-99.99,,2013-02-25 00:22:00,
2013-02-24 18:32:00,61.0,-99.9,29.91,East,88,11.0,11.0,-999,-99.99,,,-99.99,,2013-02-25 00:32:00,
2013-02-24 18:42:00,60.0,-99.9,29.89,East,83,11.0,11.0,-999,-99.99,,,-99.99,,2013-02-25 00:42:00,
2013-02-24 18:52:00,61.0,-99.9,29.91,ENE,76,10.0,11.0,-999,-99.99,,,-99.99,,2013-02-25 00:52:00,
2013-02-24 19:02:00,61.0,-99.9,29.90,ENE,67,12.0,15.0,-999,-99.99,,,-99.99,,2013-02-25 01:02:00,
2013-02-24 19:11:00,61.0,-99.9,29.90,East,81,13.0,14.0,-999,-99.99,,,-99.99,,2013-02-25 01:11:00,
2013-02-24 19:22:00,60.0,-99.9,29.90,ENE,74,11.0,13.0,-999,-99.99,,,-99.99,,2013-02-25 01:22:00,
2013-02-24 19:32:00,60.0,-99.9,29.90,NNE,33,14.0,14.0,-999,-99.99,,,-99.99,,2013-02-25 01:32:00,
2013-02-24 19:42:00,60.0,-99.9,29.90,NE,36,14.0,15.0,-999,-99.99,,,-99.99,,2013-02-25 01:42:00,
2013-02-24 19:52:00,61.0,-99.9,29.90,NE,56,12.0,13.0,-999,-99.99,,,-99.99,,2013-02-25 01:52:00,
2013-02-24 20:01:00,60.0,-99.9,29.90,ENE,73,12.0,13.0,-999,-99.99,,,-99.99,,2013-02-25 02:01:00,
2013-02-24 20:11:00,61.0,-99.9,29.90,ENE,75,11.0,17.0,-999,-99.99,,,-99.99,,2013-02-25 02:11:00,
2013-02-24 20:21:00,60.0,-99.9,29.91,ESE,109,7.0,10.0,-999,-99.99,,,-99.99,,2013-02-25 02:21:00,
2013-02-24 20:32:00,60.0,-99.9,29.90,NE,41,11.0,15.0,-999,-99.99,,,-99.99,,2013-02-25 02:32:00,
2013-02-24 20:42:00,60.0,-99.9,29.87,ENE,69,15.0,18.0,-999,-99.99,,,-99.99,,2013-02-25 02:42:00,
2013-02-24 20:52:00,60.0,-99.9,29.88,East,94,15.0,16.0,-999,-99.99,,,-99.99,,2013-02-25 02:52:00,
2013-02-24 21:02:00,60.0,-99.9,29.91,East,80,9.0,12.0,-999,-99.99,,,-99.99,,2013-02-25 03:02:00,
2013-02-24 21:11:00,60.0,-99.9,29.91,NE,44,10.0,12.0,-999,-99.99,,,-99.99,,2013-02-25 03:11:00,
2013-02-24 21:21:00,60.0,-99.9,29.92,East,81,8.0,12.0,-999,-99.99,,,-99.99,,2013-02-25 03:21:00,
2013-02-24 21:32:00,60.0,-99.9,29.92,East,87,14.0,21.0,-999,-99.99,,,-99.99,,2013-02-25 03:32:00,
2013-02-24 21:42:00,59.0,-99.9,29.89,ENE,71,19.0,26.0,-999,-99.99,,,-99.99,,2013-02-25 03:42:00,
2013-02-24 21:52:00,60.0,-99.9,29.88,ENE,77,20.0,23.0,-999,-99.99,,,-99.99,,2013-02-25 03:52:00,
2013-02-24 22:02:00,60.0,-99.9,29.85,ENE,61,25.0,28.0,-999,-99.99,,,-99.99,,2013-02-25 04:02:00,
2013-02-24 22:11:00,60.0,-99.9,29.85,ENE,66,24.0,28.0,-999,-99.99,,,-99.99,,2013-02-25 04:11:00,
2013-02-24 22:22:00,59.0,-99.9,29.84,ENE,72,25.0,28.0,-999,-99.99,,,-99.99,,2013-02-25 04:22:00,
2013-02-24 22:32:00,59.0,-99.9,29.84,ENE,78,22.0,25.0,-999,-99.99,,,-99.99,,2013-02-25 04:32:00,
2013-02-24 22:42:00,59.0,-99.9,29.82,ENE,65,21.0,24.0,-999,-99.99,,,-99.99,,2013-02-25 04:42:00,
2013-02-24 22:52:00,59.0,-99.9,29.85,ENE,73,15.0,16.0,-999,-99.99,,,-99.99,,2013-02-25 04:52:00,
2013-02-24 23:01:00,59.0,-99.9,29.90,NNW,337,7.0,11.0,-999,-99.99,,,-99.99,,2013-02-25 05:01:00,
2013-02-24 23:11:00,60.0,-99.9,29.93,West,280,9.0,10.0,-999,-99.99,,,-99.99,,2013-02-25 05:11:00,
2013-02-24 23:22:00,59.0,-99.9,29.88,East,85,15.0,26.0,-999,-99.99,,,-99.99,,2013-02-25 05:22:00,
2013-02-24 23:32:00,58.0,-99.9,29.85,East,101,27.0,30.0,-999,-99.99,,,-99.99,,2013-02-25 05:32:00,
2013-02-24 23:42:00,59.0,-99.9,29.85,ESE,104,23.0,26.0,-999,-99.99,,,-99.99,,2013-02-25 05:42:00,
2013-02-24 23:52:00,58.0,-99.9,29.84,East,91,21.0,24.0,-999,-99.99,,,-99.99,,2013-02-25 05:52:00,